sensor_id;sensor_type;location;lat;lon;timestamp;P1;durP1;ratioP1;P2;durP2;ratioP2
79487;SDS011;68949;53.176;18.088;2024-03-23T00:53:56;10.00;;;1.60;;
79487;SDS011;68949;53.176;18.088;2024-03-23T00:56:23;15.60;;;2.30;;
79487;SDS011;68949;53.176;18.088;2024-03-23T00:59:03;15.60;;;2.10;;
79487;SDS011;68949;53.176;18.088;2024-03-23T01:01:31;12.40;;;1.80;;
79487;SDS011;68949;53.176;18.088;2024-03-23T01:04:03;10.70;;;2.40;;
79487;SDS011;68949;53.176;18.088;2024-03-23T01:07:27;10.90;;;1.90;;
79487;SDS011;68949;53.176;18.088;2024-03-23T01:10:06;9.70;;;1.60;;
79487;SDS011;68949;53.176;18.088;2024-03-23T01:12:47;11.60;;;1.90;;
79487;SDS011;68949;53.176;18.088;2024-03-23T01:15:55;11.30;;;1.40;;
79487;SDS011;68949;53.176;18.088;2024-03-23T01:19:00;9.50;;;2.40;;
79487;SDS011;68949;53.176;18.088;2024-03-23T01:21:40;11.70;;;2.00;;
79487;SDS011;68949;53.176;18.088;2024-03-23T01:24:12;10.50;;;1.80;;
79487;SDS011;68949;53.176;18.088;2024-03-23T01:26:50;11.80;;;1.90;;
79487;SDS011;68949;53.176;18.088;2024-03-23T01:29:18;12.40;;;1.60;;
79487;SDS011;68949;53.176;18.088;2024-03-23T01:32:02;16.90;;;2.20;;
79487;SDS011;68949;53.176;18.088;2024-03-23T01:34:53;10.30;;;2.00;;
79487;SDS011;68949;53.176;18.088;2024-03-23T01:37:19;8.90;;;2.00;;
79487;SDS011;68949;53.176;18.088;2024-03-23T01:39:47;13.60;;;2.20;;
79487;SDS011;68949;53.176;18.088;2024-03-23T01:42:15;15.60;;;2.40;;
79487;SDS011;68949;53.176;18.088;2024-03-23T01:44:42;13.20;;;2.30;;
79487;SDS011;68949;53.176;18.088;2024-03-23T01:47:08;11.10;;;2.40;;
79487;SDS011;68949;53.176;18.088;2024-03-23T01:49:37;10.60;;;2.20;;
79487;SDS011;68949;53.176;18.088;2024-03-23T01:52:04;12.40;;;2.90;;
79487;SDS011;68949;53.176;18.088;2024-03-23T01:54:33;12.30;;;2.20;;
79487;SDS011;68949;53.176;18.088;2024-03-23T01:57:04;9.10;;;2.50;;
79487;SDS011;68949;53.176;18.088;2024-03-23T01:59:32;9.60;;;2.20;;
79487;SDS011;68949;53.176;18.088;2024-03-23T02:01:59;11.50;;;2.10;;
79487;SDS011;68949;53.176;18.088;2024-03-23T02:04:26;9.50;;;1.90;;
79487;SDS011;68949;53.176;18.088;2024-03-23T02:06:53;13.30;;;2.30;;
79487;SDS011;68949;53.176;18.088;2024-03-23T02:09:20;13.30;;;2.10;;
79487;SDS011;68949;53.176;18.088;2024-03-23T02:11:47;11.20;;;2.30;;
79487;SDS011;68949;53.176;18.088;2024-03-23T02:14:14;15.20;;;2.60;;
79487;SDS011;68949;53.176;18.088;2024-03-23T02:16:40;11.50;;;2.70;;
79487;SDS011;68949;53.176;18.088;2024-03-23T02:19:08;12.20;;;2.20;;
79487;SDS011;68949;53.176;18.088;2024-03-23T02:21:37;11.20;;;2.30;;
79487;SDS011;68949;53.176;18.088;2024-03-23T02:24:04;10.30;;;1.70;;
79487;SDS011;68949;53.176;18.088;2024-03-23T02:26:31;11.10;;;2.80;;
79487;SDS011;68949;53.176;18.088;2024-03-23T02:28:58;13.00;;;2.20;;
79487;SDS011;68949;53.176;18.088;2024-03-23T02:31:25;10.90;;;2.20;;
79487;SDS011;68949;53.176;18.088;2024-03-23T02:33:54;9.10;;;2.40;;
79487;SDS011;68949;53.176;18.088;2024-03-23T02:36:24;10.70;;;2.10;;
79487;SDS011;68949;53.176;18.088;2024-03-23T02:38:52;8.10;;;1.60;;
79487;SDS011;68949;53.176;18.088;2024-03-23T02:41:18;10.40;;;2.50;;
79487;SDS011;68949;53.176;18.088;2024-03-23T02:43:51;13.50;;;4.60;;
79487;SDS011;68949;53.176;18.088;2024-03-23T02:46:19;11.20;;;3.30;;
79487;SDS011;68949;53.176;18.088;2024-03-23T02:48:48;14.50;;;2.90;;
79487;SDS011;68949;53.176;18.088;2024-03-23T02:51:15;11.10;;;2.50;;
79487;SDS011;68949;53.176;18.088;2024-03-23T02:53:42;16.50;;;3.40;;
79487;SDS011;68949;53.176;18.088;2024-03-23T02:56:12;12.60;;;2.90;;
79487;SDS011;68949;53.176;18.088;2024-03-23T02:58:43;17.00;;;4.20;;
79487;SDS011;68949;53.176;18.088;2024-03-23T03:01:13;11.90;;;2.80;;
79487;SDS011;68949;53.176;18.088;2024-03-23T03:03:40;15.90;;;3.00;;
79487;SDS011;68949;53.176;18.088;2024-03-23T03:06:07;10.90;;;2.40;;
79487;SDS011;68949;53.176;18.088;2024-03-23T03:08:33;10.70;;;2.60;;
79487;SDS011;68949;53.176;18.088;2024-03-23T03:11:00;14.60;;;3.10;;
79487;SDS011;68949;53.176;18.088;2024-03-23T03:13:27;11.10;;;2.60;;
79487;SDS011;68949;53.176;18.088;2024-03-23T03:15:54;9.00;;;2.40;;
79487;SDS011;68949;53.176;18.088;2024-03-23T03:18:22;10.60;;;2.20;;
79487;SDS011;68949;53.176;18.088;2024-03-23T03:20:49;12.90;;;2.80;;
79487;SDS011;68949;53.176;18.088;2024-03-23T03:23:16;8.60;;;2.40;;
79487;SDS011;68949;53.176;18.088;2024-03-23T03:25:44;11.00;;;2.60;;
79487;SDS011;68949;53.176;18.088;2024-03-23T03:28:12;10.50;;;2.80;;
79487;SDS011;68949;53.176;18.088;2024-03-23T03:30:45;7.60;;;2.10;;
79487;SDS011;68949;53.176;18.088;2024-03-23T03:33:11;11.50;;;2.80;;
79487;SDS011;68949;53.176;18.088;2024-03-23T03:35:40;10.90;;;2.90;;
79487;SDS011;68949;53.176;18.088;2024-03-23T03:38:10;10.70;;;2.20;;
79487;SDS011;68949;53.176;18.088;2024-03-23T03:40:37;8.30;;;2.60;;
79487;SDS011;68949;53.176;18.088;2024-03-23T03:43:04;13.50;;;2.60;;
79487;SDS011;68949;53.176;18.088;2024-03-23T03:45:34;9.50;;;2.50;;
79487;SDS011;68949;53.176;18.088;2024-03-23T03:48:04;8.20;;;2.60;;
79487;SDS011;68949;53.176;18.088;2024-03-23T03:50:31;8.00;;;2.70;;
79487;SDS011;68949;53.176;18.088;2024-03-23T03:52:58;9.30;;;2.10;;
79487;SDS011;68949;53.176;18.088;2024-03-23T03:55:25;11.90;;;2.60;;
79487;SDS011;68949;53.176;18.088;2024-03-23T03:57:51;8.40;;;2.10;;
79487;SDS011;68949;53.176;18.088;2024-03-23T04:00:21;9.20;;;2.10;;
79487;SDS011;68949;53.176;18.088;2024-03-23T04:02:48;8.70;;;2.20;;
79487;SDS011;68949;53.176;18.088;2024-03-23T04:05:17;10.00;;;2.10;;
79487;SDS011;68949;53.176;18.088;2024-03-23T04:07:44;10.40;;;2.20;;
79487;SDS011;68949;53.176;18.088;2024-03-23T04:10:11;9.80;;;2.00;;
79487;SDS011;68949;53.176;18.088;2024-03-23T04:12:38;9.00;;;2.50;;
79487;SDS011;68949;53.176;18.088;2024-03-23T04:15:05;11.90;;;2.20;;
79487;SDS011;68949;53.176;18.088;2024-03-23T04:17:33;11.30;;;2.20;;
79487;SDS011;68949;53.176;18.088;2024-03-23T04:20:02;10.00;;;2.50;;
79487;SDS011;68949;53.176;18.088;2024-03-23T04:22:35;8.90;;;2.20;;
79487;SDS011;68949;53.176;18.088;2024-03-23T04:25:04;11.10;;;3.80;;
79487;SDS011;68949;53.176;18.088;2024-03-23T04:27:33;9.40;;;2.10;;
79487;SDS011;68949;53.176;18.088;2024-03-23T04:30:03;8.00;;;2.20;;
79487;SDS011;68949;53.176;18.088;2024-03-23T04:32:37;8.30;;;1.70;;
79487;SDS011;68949;53.176;18.088;2024-03-23T04:35:06;5.70;;;1.40;;
79487;SDS011;68949;53.176;18.088;2024-03-23T04:37:36;6.60;;;1.90;;
79487;SDS011;68949;53.176;18.088;2024-03-23T04:40:09;10.70;;;2.00;;
79487;SDS011;68949;53.176;18.088;2024-03-23T04:42:37;12.80;;;2.20;;
79487;SDS011;68949;53.176;18.088;2024-03-23T04:45:07;10.90;;;2.20;;
79487;SDS011;68949;53.176;18.088;2024-03-23T04:47:37;9.80;;;2.50;;
79487;SDS011;68949;53.176;18.088;2024-03-23T04:50:05;13.70;;;2.10;;
79487;SDS011;68949;53.176;18.088;2024-03-23T04:52:35;10.50;;;2.00;;
79487;SDS011;68949;53.176;18.088;2024-03-23T04:55:02;12.20;;;2.00;;
79487;SDS011;68949;53.176;18.088;2024-03-23T04:57:34;13.50;;;2.20;;
79487;SDS011;68949;53.176;18.088;2024-03-23T05:00:30;15.00;;;2.60;;
79487;SDS011;68949;53.176;18.088;2024-03-23T05:03:00;11.60;;;2.50;;
79487;SDS011;68949;53.176;18.088;2024-03-23T05:05:30;14.00;;;2.30;;
79487;SDS011;68949;53.176;18.088;2024-03-23T05:08:21;10.10;;;2.30;;
79487;SDS011;68949;53.176;18.088;2024-03-23T05:11:35;12.20;;;2.90;;
79487;SDS011;68949;53.176;18.088;2024-03-23T05:14:23;12.40;;;3.10;;
79487;SDS011;68949;53.176;18.088;2024-03-23T05:17:06;11.80;;;2.90;;
79487;SDS011;68949;53.176;18.088;2024-03-23T05:19:36;12.50;;;2.90;;
79487;SDS011;68949;53.176;18.088;2024-03-23T05:22:21;11.70;;;3.00;;
79487;SDS011;68949;53.176;18.088;2024-03-23T05:25:05;11.40;;;2.30;;
79487;SDS011;68949;53.176;18.088;2024-03-23T05:27:54;8.40;;;1.90;;
79487;SDS011;68949;53.176;18.088;2024-03-23T05:30:33;9.40;;;2.70;;
79487;SDS011;68949;53.176;18.088;2024-03-23T05:33:05;8.40;;;2.00;;
79487;SDS011;68949;53.176;18.088;2024-03-23T05:35:41;10.10;;;2.70;;
79487;SDS011;68949;53.176;18.088;2024-03-23T05:38:15;14.10;;;3.20;;
79487;SDS011;68949;53.176;18.088;2024-03-23T05:40:56;14.20;;;3.40;;
79487;SDS011;68949;53.176;18.088;2024-03-23T05:43:27;16.40;;;3.30;;
79487;SDS011;68949;53.176;18.088;2024-03-23T05:46:05;13.20;;;3.10;;
79487;SDS011;68949;53.176;18.088;2024-03-23T05:49:15;12.30;;;2.80;;
79487;SDS011;68949;53.176;18.088;2024-03-23T05:52:02;12.90;;;2.10;;
79487;SDS011;68949;53.176;18.088;2024-03-23T05:55:05;15.60;;;2.80;;
79487;SDS011;68949;53.176;18.088;2024-03-23T05:57:46;11.90;;;2.90;;
79487;SDS011;68949;53.176;18.088;2024-03-23T06:00:26;14.20;;;2.40;;
79487;SDS011;68949;53.176;18.088;2024-03-23T06:03:00;12.90;;;2.60;;
79487;SDS011;68949;53.176;18.088;2024-03-23T06:06:02;11.80;;;2.60;;
79487;SDS011;68949;53.176;18.088;2024-03-23T06:08:56;14.90;;;2.90;;
79487;SDS011;68949;53.176;18.088;2024-03-23T06:11:23;8.50;;;1.70;;
79487;SDS011;68949;53.176;18.088;2024-03-23T06:13:51;9.80;;;2.00;;
79487;SDS011;68949;53.176;18.088;2024-03-23T06:16:19;10.80;;;2.20;;
79487;SDS011;68949;53.176;18.088;2024-03-23T06:18:50;9.60;;;2.00;;
79487;SDS011;68949;53.176;18.088;2024-03-23T06:21:18;10.10;;;1.80;;
79487;SDS011;68949;53.176;18.088;2024-03-23T06:23:46;8.00;;;2.10;;
79487;SDS011;68949;53.176;18.088;2024-03-23T06:26:22;11.10;;;2.30;;
79487;SDS011;68949;53.176;18.088;2024-03-23T06:28:49;14.70;;;2.60;;
79487;SDS011;68949;53.176;18.088;2024-03-23T06:31:20;13.00;;;2.60;;
79487;SDS011;68949;53.176;18.088;2024-03-23T06:33:50;12.80;;;2.40;;
79487;SDS011;68949;53.176;18.088;2024-03-23T06:36:17;13.40;;;2.40;;
79487;SDS011;68949;53.176;18.088;2024-03-23T06:38:46;14.20;;;2.30;;
79487;SDS011;68949;53.176;18.088;2024-03-23T06:41:14;10.30;;;2.20;;
79487;SDS011;68949;53.176;18.088;2024-03-23T06:43:43;9.30;;;2.10;;
79487;SDS011;68949;53.176;18.088;2024-03-23T06:46:09;15.90;;;3.00;;
79487;SDS011;68949;53.176;18.088;2024-03-23T06:48:36;13.60;;;2.60;;
79487;SDS011;68949;53.176;18.088;2024-03-23T06:51:03;11.10;;;2.40;;
79487;SDS011;68949;53.176;18.088;2024-03-23T06:53:31;10.70;;;2.60;;
79487;SDS011;68949;53.176;18.088;2024-03-23T06:55:57;15.00;;;2.60;;
79487;SDS011;68949;53.176;18.088;2024-03-23T06:58:25;11.90;;;2.60;;
79487;SDS011;68949;53.176;18.088;2024-03-23T07:00:52;12.30;;;2.30;;
79487;SDS011;68949;53.176;18.088;2024-03-23T07:03:21;11.30;;;2.20;;
79487;SDS011;68949;53.176;18.088;2024-03-23T07:05:48;15.80;;;2.80;;
79487;SDS011;68949;53.176;18.088;2024-03-23T07:08:17;10.80;;;2.10;;
79487;SDS011;68949;53.176;18.088;2024-03-23T07:10:47;12.00;;;2.40;;
79487;SDS011;68949;53.176;18.088;2024-03-23T07:13:14;12.00;;;2.40;;
79487;SDS011;68949;53.176;18.088;2024-03-23T07:15:42;15.00;;;2.60;;
79487;SDS011;68949;53.176;18.088;2024-03-23T07:18:09;10.80;;;2.30;;
79487;SDS011;68949;53.176;18.088;2024-03-23T07:20:39;9.20;;;1.70;;
79487;SDS011;68949;53.176;18.088;2024-03-23T07:23:07;13.90;;;2.00;;
79487;SDS011;68949;53.176;18.088;2024-03-23T07:25:37;9.00;;;1.80;;
79487;SDS011;68949;53.176;18.088;2024-03-23T07:28:09;14.30;;;1.90;;
79487;SDS011;68949;53.176;18.088;2024-03-23T07:30:44;13.20;;;2.50;;
79487;SDS011;68949;53.176;18.088;2024-03-23T07:33:15;11.90;;;2.10;;
79487;SDS011;68949;53.176;18.088;2024-03-23T07:35:53;12.10;;;2.60;;
79487;SDS011;68949;53.176;18.088;2024-03-23T07:39:02;11.30;;;2.40;;
79487;SDS011;68949;53.176;18.088;2024-03-23T07:42:06;14.60;;;1.90;;
79487;SDS011;68949;53.176;18.088;2024-03-23T07:44:59;11.30;;;2.30;;
79487;SDS011;68949;53.176;18.088;2024-03-23T07:47:33;7.60;;;1.50;;
79487;SDS011;68949;53.176;18.088;2024-03-23T07:50:05;7.20;;;1.60;;
79487;SDS011;68949;53.176;18.088;2024-03-23T07:52:32;11.70;;;2.30;;
79487;SDS011;68949;53.176;18.088;2024-03-23T07:55:03;10.70;;;1.50;;
79487;SDS011;68949;53.176;18.088;2024-03-23T07:57:32;7.20;;;1.10;;
79487;SDS011;68949;53.176;18.088;2024-03-23T08:00:03;12.10;;;1.80;;
79487;SDS011;68949;53.176;18.088;2024-03-23T08:02:32;8.70;;;1.80;;
79487;SDS011;68949;53.176;18.088;2024-03-23T08:05:00;9.30;;;2.30;;
79487;SDS011;68949;53.176;18.088;2024-03-23T08:07:37;9.90;;;2.80;;
79487;SDS011;68949;53.176;18.088;2024-03-23T08:10:08;12.20;;;3.60;;
79487;SDS011;68949;53.176;18.088;2024-03-23T08:12:42;15.20;;;3.80;;
79487;SDS011;68949;53.176;18.088;2024-03-23T08:15:13;12.20;;;2.70;;
79487;SDS011;68949;53.176;18.088;2024-03-23T08:17:43;12.30;;;3.00;;
79487;SDS011;68949;53.176;18.088;2024-03-23T08:20:13;15.20;;;3.20;;
79487;SDS011;68949;53.176;18.088;2024-03-23T08:22:42;11.20;;;2.70;;
79487;SDS011;68949;53.176;18.088;2024-03-23T08:25:14;13.20;;;3.40;;
79487;SDS011;68949;53.176;18.088;2024-03-23T08:27:45;13.30;;;2.80;;
79487;SDS011;68949;53.176;18.088;2024-03-23T08:30:45;6.60;;;1.80;;
79487;SDS011;68949;53.176;18.088;2024-03-23T08:33:17;11.80;;;1.70;;
79487;SDS011;68949;53.176;18.088;2024-03-23T08:35:58;8.80;;;1.60;;
79487;SDS011;68949;53.176;18.088;2024-03-23T08:38:32;12.60;;;2.30;;
79487;SDS011;68949;53.176;18.088;2024-03-23T08:41:05;11.00;;;2.40;;
79487;SDS011;68949;53.176;18.088;2024-03-23T08:43:38;11.30;;;1.70;;
79487;SDS011;68949;53.176;18.088;2024-03-23T08:46:08;10.90;;;2.20;;
79487;SDS011;68949;53.176;18.088;2024-03-23T08:48:44;11.10;;;1.70;;
79487;SDS011;68949;53.176;18.088;2024-03-23T08:51:14;5.30;;;0.90;;
79487;SDS011;68949;53.176;18.088;2024-03-23T08:53:42;8.10;;;1.10;;
79487;SDS011;68949;53.176;18.088;2024-03-23T08:56:10;5.70;;;1.10;;
79487;SDS011;68949;53.176;18.088;2024-03-23T08:58:38;11.50;;;2.50;;
79487;SDS011;68949;53.176;18.088;2024-03-23T09:01:12;7.50;;;1.90;;
79487;SDS011;68949;53.176;18.088;2024-03-23T09:03:40;6.50;;;2.30;;
79487;SDS011;68949;53.176;18.088;2024-03-23T09:06:11;9.60;;;2.70;;
79487;SDS011;68949;53.176;18.088;2024-03-23T09:08:39;8.00;;;2.20;;
79487;SDS011;68949;53.176;18.088;2024-03-23T09:11:08;8.20;;;2.20;;
79487;SDS011;68949;53.176;18.088;2024-03-23T09:13:37;9.30;;;2.20;;
79487;SDS011;68949;53.176;18.088;2024-03-23T09:16:06;5.10;;;1.10;;
79487;SDS011;68949;53.176;18.088;2024-03-23T09:18:34;6.20;;;1.20;;
79487;SDS011;68949;53.176;18.088;2024-03-23T09:21:10;3.10;;;0.40;;
79487;SDS011;68949;53.176;18.088;2024-03-23T09:23:39;1.90;;;0.50;;
79487;SDS011;68949;53.176;18.088;2024-03-23T09:26:06;3.20;;;0.60;;
79487;SDS011;68949;53.176;18.088;2024-03-23T09:28:34;8.90;;;0.50;;
79487;SDS011;68949;53.176;18.088;2024-03-23T09:31:03;3.90;;;0.50;;
79487;SDS011;68949;53.176;18.088;2024-03-23T09:33:31;5.30;;;0.60;;
79487;SDS011;68949;53.176;18.088;2024-03-23T09:35:58;5.00;;;0.70;;
79487;SDS011;68949;53.176;18.088;2024-03-23T09:38:24;3.80;;;0.90;;
79487;SDS011;68949;53.176;18.088;2024-03-23T09:40:52;5.40;;;0.80;;
79487;SDS011;68949;53.176;18.088;2024-03-23T09:43:19;3.90;;;0.70;;
79487;SDS011;68949;53.176;18.088;2024-03-23T09:45:46;5.30;;;1.10;;
79487;SDS011;68949;53.176;18.088;2024-03-23T09:48:13;5.50;;;1.00;;
79487;SDS011;68949;53.176;18.088;2024-03-23T09:50:40;5.10;;;0.90;;
79487;SDS011;68949;53.176;18.088;2024-03-23T09:53:12;5.40;;;1.30;;
79487;SDS011;68949;53.176;18.088;2024-03-23T09:55:41;6.30;;;1.00;;
79487;SDS011;68949;53.176;18.088;2024-03-23T09:58:15;3.70;;;0.80;;
79487;SDS011;68949;53.176;18.088;2024-03-23T10:00:42;4.70;;;0.50;;
79487;SDS011;68949;53.176;18.088;2024-03-23T10:03:17;3.10;;;0.40;;
79487;SDS011;68949;53.176;18.088;2024-03-23T10:05:45;3.30;;;0.40;;
79487;SDS011;68949;53.176;18.088;2024-03-23T10:11:13;4.40;;;0.60;;
79487;SDS011;68949;53.176;18.088;2024-03-23T10:13:45;5.10;;;0.70;;
79487;SDS011;68949;53.176;18.088;2024-03-23T10:16:22;5.60;;;1.40;;
79487;SDS011;68949;53.176;18.088;2024-03-23T10:18:50;3.40;;;0.80;;
79487;SDS011;68949;53.176;18.088;2024-03-23T10:21:17;7.10;;;1.00;;
79487;SDS011;68949;53.176;18.088;2024-03-23T10:23:44;7.00;;;1.10;;
79487;SDS011;68949;53.176;18.088;2024-03-23T10:26:24;6.50;;;1.90;;
79487;SDS011;68949;53.176;18.088;2024-03-23T10:28:57;6.00;;;1.30;;
79487;SDS011;68949;53.176;18.088;2024-03-23T10:31:27;6.40;;;0.90;;
79487;SDS011;68949;53.176;18.088;2024-03-23T10:33:55;6.90;;;1.00;;
79487;SDS011;68949;53.176;18.088;2024-03-23T10:36:23;5.20;;;1.10;;
79487;SDS011;68949;53.176;18.088;2024-03-23T10:38:51;5.30;;;1.20;;
79487;SDS011;68949;53.176;18.088;2024-03-23T10:41:18;6.00;;;0.80;;
79487;SDS011;68949;53.176;18.088;2024-03-23T10:43:47;4.20;;;0.90;;
79487;SDS011;68949;53.176;18.088;2024-03-23T10:46:16;5.90;;;1.10;;
79487;SDS011;68949;53.176;18.088;2024-03-23T10:48:43;6.80;;;1.40;;
79487;SDS011;68949;53.176;18.088;2024-03-23T10:51:13;4.50;;;1.10;;
79487;SDS011;68949;53.176;18.088;2024-03-23T10:53:41;9.00;;;1.60;;
79487;SDS011;68949;53.176;18.088;2024-03-23T10:56:10;8.90;;;1.20;;
79487;SDS011;68949;53.176;18.088;2024-03-23T10:58:40;5.40;;;0.90;;
79487;SDS011;68949;53.176;18.088;2024-03-23T11:01:12;10.80;;;1.60;;
79487;SDS011;68949;53.176;18.088;2024-03-23T11:03:45;5.70;;;0.70;;
79487;SDS011;68949;53.176;18.088;2024-03-23T11:06:38;8.50;;;1.40;;
79487;SDS011;68949;53.176;18.088;2024-03-23T11:09:42;7.50;;;1.90;;
79487;SDS011;68949;53.176;18.088;2024-03-23T11:12:25;7.30;;;1.70;;
79487;SDS011;68949;53.176;18.088;2024-03-23T11:15:02;7.90;;;2.00;;
79487;SDS011;68949;53.176;18.088;2024-03-23T11:17:31;7.90;;;1.20;;
79487;SDS011;68949;53.176;18.088;2024-03-23T11:20:05;9.30;;;1.50;;
79487;SDS011;68949;53.176;18.088;2024-03-23T11:22:45;6.80;;;1.50;;
79487;SDS011;68949;53.176;18.088;2024-03-23T11:25:21;5.10;;;1.20;;
79487;SDS011;68949;53.176;18.088;2024-03-23T11:27:52;9.20;;;2.10;;
79487;SDS011;68949;53.176;18.088;2024-03-23T11:30:28;6.40;;;1.50;;
79487;SDS011;68949;53.176;18.088;2024-03-23T11:32:56;7.20;;;1.40;;
79487;SDS011;68949;53.176;18.088;2024-03-23T11:35:31;8.30;;;2.30;;
79487;SDS011;68949;53.176;18.088;2024-03-23T11:38:08;10.10;;;2.10;;
79487;SDS011;68949;53.176;18.088;2024-03-23T11:40:38;7.20;;;1.30;;
79487;SDS011;68949;53.176;18.088;2024-03-23T11:43:13;8.80;;;1.50;;
79487;SDS011;68949;53.176;18.088;2024-03-23T11:45:43;6.10;;;1.40;;
79487;SDS011;68949;53.176;18.088;2024-03-23T11:48:17;5.70;;;1.10;;
79487;SDS011;68949;53.176;18.088;2024-03-23T11:50:46;6.60;;;1.50;;
79487;SDS011;68949;53.176;18.088;2024-03-23T11:55:57;7.20;;;1.90;;
79487;SDS011;68949;53.176;18.088;2024-03-23T11:58:26;7.40;;;1.80;;
79487;SDS011;68949;53.176;18.088;2024-03-23T12:01:03;7.60;;;1.50;;
79487;SDS011;68949;53.176;18.088;2024-03-23T12:03:31;6.70;;;1.80;;
79487;SDS011;68949;53.176;18.088;2024-03-23T12:06:04;5.50;;;1.40;;
79487;SDS011;68949;53.176;18.088;2024-03-23T12:08:32;15.50;;;2.30;;
79487;SDS011;68949;53.176;18.088;2024-03-23T12:13:45;9.60;;;1.70;;
79487;SDS011;68949;53.176;18.088;2024-03-23T12:16:16;7.60;;;1.20;;
79487;SDS011;68949;53.176;18.088;2024-03-23T12:18:48;4.40;;;1.40;;
79487;SDS011;68949;53.176;18.088;2024-03-23T12:21:25;6.10;;;1.40;;
79487;SDS011;68949;53.176;18.088;2024-03-23T12:23:53;6.30;;;1.30;;
79487;SDS011;68949;53.176;18.088;2024-03-23T12:26:20;5.90;;;1.60;;
79487;SDS011;68949;53.176;18.088;2024-03-23T12:28:47;3.30;;;0.70;;
79487;SDS011;68949;53.176;18.088;2024-03-23T12:31:13;8.20;;;1.60;;
79487;SDS011;68949;53.176;18.088;2024-03-23T12:33:41;4.90;;;1.50;;
79487;SDS011;68949;53.176;18.088;2024-03-23T12:36:09;6.60;;;1.20;;
79487;SDS011;68949;53.176;18.088;2024-03-23T12:38:35;6.60;;;1.60;;
79487;SDS011;68949;53.176;18.088;2024-03-23T12:41:02;5.10;;;1.40;;
79487;SDS011;68949;53.176;18.088;2024-03-23T12:43:31;7.30;;;2.60;;
79487;SDS011;68949;53.176;18.088;2024-03-23T12:45:58;5.50;;;1.30;;
79487;SDS011;68949;53.176;18.088;2024-03-23T12:48:25;4.20;;;1.00;;
79487;SDS011;68949;53.176;18.088;2024-03-23T12:50:54;4.30;;;0.90;;
79487;SDS011;68949;53.176;18.088;2024-03-23T12:53:22;7.30;;;1.50;;
79487;SDS011;68949;53.176;18.088;2024-03-23T12:55:49;6.20;;;1.50;;
79487;SDS011;68949;53.176;18.088;2024-03-23T12:58:16;5.40;;;1.40;;
79487;SDS011;68949;53.176;18.088;2024-03-23T13:00:45;4.90;;;1.20;;
79487;SDS011;68949;53.176;18.088;2024-03-23T13:03:13;4.90;;;1.20;;
79487;SDS011;68949;53.176;18.088;2024-03-23T13:05:42;4.40;;;1.10;;
79487;SDS011;68949;53.176;18.088;2024-03-23T13:08:11;5.00;;;0.90;;
79487;SDS011;68949;53.176;18.088;2024-03-23T13:10:38;6.60;;;1.70;;
79487;SDS011;68949;53.176;18.088;2024-03-23T13:13:04;4.50;;;1.00;;
79487;SDS011;68949;53.176;18.088;2024-03-23T13:15:31;11.20;;;2.20;;
79487;SDS011;68949;53.176;18.088;2024-03-23T13:17:57;8.20;;;2.00;;
79487;SDS011;68949;53.176;18.088;2024-03-23T13:20:25;3.40;;;1.00;;
79487;SDS011;68949;53.176;18.088;2024-03-23T13:22:51;4.20;;;1.30;;
79487;SDS011;68949;53.176;18.088;2024-03-23T13:25:18;3.30;;;0.90;;
79487;SDS011;68949;53.176;18.088;2024-03-23T13:27:45;3.60;;;0.60;;
79487;SDS011;68949;53.176;18.088;2024-03-23T13:30:12;4.30;;;0.50;;
79487;SDS011;68949;53.176;18.088;2024-03-23T13:32:39;4.70;;;0.70;;
79487;SDS011;68949;53.176;18.088;2024-03-23T13:35:06;3.30;;;0.80;;
79487;SDS011;68949;53.176;18.088;2024-03-23T13:37:32;5.10;;;0.40;;
79487;SDS011;68949;53.176;18.088;2024-03-23T13:40:00;8.30;;;0.30;;
79487;SDS011;68949;53.176;18.088;2024-03-23T13:42:27;3.80;;;0.40;;
79487;SDS011;68949;53.176;18.088;2024-03-23T13:44:53;4.50;;;0.90;;
79487;SDS011;68949;53.176;18.088;2024-03-23T13:47:20;6.70;;;1.50;;
79487;SDS011;68949;53.176;18.088;2024-03-23T13:49:46;3.50;;;0.80;;
79487;SDS011;68949;53.176;18.088;2024-03-23T13:52:15;5.60;;;0.80;;
79487;SDS011;68949;53.176;18.088;2024-03-23T13:54:41;3.10;;;0.50;;
79487;SDS011;68949;53.176;18.088;2024-03-23T13:57:12;4.10;;;0.40;;
79487;SDS011;68949;53.176;18.088;2024-03-23T13:59:39;2.50;;;0.30;;
79487;SDS011;68949;53.176;18.088;2024-03-23T14:02:06;3.30;;;0.20;;
79487;SDS011;68949;53.176;18.088;2024-03-23T14:04:32;4.20;;;0.60;;
79487;SDS011;68949;53.176;18.088;2024-03-23T14:06:59;2.10;;;0.70;;
79487;SDS011;68949;53.176;18.088;2024-03-23T14:09:26;3.00;;;0.50;;
79487;SDS011;68949;53.176;18.088;2024-03-23T14:11:52;5.50;;;0.70;;
79487;SDS011;68949;53.176;18.088;2024-03-23T14:14:19;7.20;;;1.00;;
79487;SDS011;68949;53.176;18.088;2024-03-23T14:16:49;1.70;;;0.30;;
79487;SDS011;68949;53.176;18.088;2024-03-23T14:19:17;3.10;;;0.40;;
79487;SDS011;68949;53.176;18.088;2024-03-23T14:21:46;9.90;;;3.00;;
79487;SDS011;68949;53.176;18.088;2024-03-23T14:24:12;5.00;;;1.80;;
79487;SDS011;68949;53.176;18.088;2024-03-23T14:26:39;3.70;;;1.00;;
79487;SDS011;68949;53.176;18.088;2024-03-23T14:29:08;4.70;;;1.70;;
79487;SDS011;68949;53.176;18.088;2024-03-23T14:31:36;4.50;;;1.20;;
79487;SDS011;68949;53.176;18.088;2024-03-23T14:34:07;6.30;;;1.30;;
79487;SDS011;68949;53.176;18.088;2024-03-23T14:36:34;3.50;;;1.00;;
79487;SDS011;68949;53.176;18.088;2024-03-23T14:39:01;6.50;;;1.60;;
79487;SDS011;68949;53.176;18.088;2024-03-23T14:41:28;4.00;;;1.20;;
79487;SDS011;68949;53.176;18.088;2024-03-23T14:43:55;2.60;;;0.80;;
79487;SDS011;68949;53.176;18.088;2024-03-23T14:46:23;5.20;;;1.60;;
79487;SDS011;68949;53.176;18.088;2024-03-23T14:48:51;6.50;;;1.50;;
79487;SDS011;68949;53.176;18.088;2024-03-23T14:51:20;7.10;;;1.30;;
79487;SDS011;68949;53.176;18.088;2024-03-23T14:53:50;6.60;;;2.00;;
79487;SDS011;68949;53.176;18.088;2024-03-23T14:56:17;5.80;;;1.20;;
79487;SDS011;68949;53.176;18.088;2024-03-23T14:58:45;7.60;;;2.30;;
79487;SDS011;68949;53.176;18.088;2024-03-23T15:01:12;5.10;;;0.90;;
79487;SDS011;68949;53.176;18.088;2024-03-23T15:03:40;5.70;;;2.10;;
79487;SDS011;68949;53.176;18.088;2024-03-23T15:06:09;4.00;;;1.00;;
79487;SDS011;68949;53.176;18.088;2024-03-23T15:08:37;4.60;;;1.30;;
79487;SDS011;68949;53.176;18.088;2024-03-23T15:11:49;11.90;;;5.10;;
79487;SDS011;68949;53.176;18.088;2024-03-23T15:14:15;5.00;;;1.40;;
79487;SDS011;68949;53.176;18.088;2024-03-23T15:16:42;9.40;;;1.50;;
79487;SDS011;68949;53.176;18.088;2024-03-23T15:19:09;5.40;;;1.30;;
79487;SDS011;68949;53.176;18.088;2024-03-23T15:21:35;9.30;;;3.40;;
79487;SDS011;68949;53.176;18.088;2024-03-23T15:24:02;5.50;;;1.50;;
79487;SDS011;68949;53.176;18.088;2024-03-23T15:26:29;5.70;;;1.40;;
79487;SDS011;68949;53.176;18.088;2024-03-23T15:28:56;7.80;;;1.90;;
79487;SDS011;68949;53.176;18.088;2024-03-23T15:31:22;1.90;;;0.30;;
79487;SDS011;68949;53.176;18.088;2024-03-23T15:33:50;8.40;;;1.80;;
79487;SDS011;68949;53.176;18.088;2024-03-23T15:36:18;10.10;;;3.90;;
79487;SDS011;68949;53.176;18.088;2024-03-23T15:38:49;7.70;;;2.80;;
79487;SDS011;68949;53.176;18.088;2024-03-23T15:41:16;5.10;;;1.50;;
79487;SDS011;68949;53.176;18.088;2024-03-23T15:43:43;3.00;;;0.80;;
79487;SDS011;68949;53.176;18.088;2024-03-23T15:46:11;4.50;;;1.30;;
79487;SDS011;68949;53.176;18.088;2024-03-23T15:48:39;5.50;;;1.60;;
79487;SDS011;68949;53.176;18.088;2024-03-23T15:51:06;6.60;;;1.20;;
79487;SDS011;68949;53.176;18.088;2024-03-23T15:53:33;7.10;;;1.30;;